Time;durP1;ratioP1;P1;durP2;ratioP2;P2;SDS_P1;SDS_P2;PMS_P1;PMS_P2;Temp;Humidity;BMP_temperature;BMP_pressure;BME280_temperature;BME280_humidity;BME280_pressure;Samples;Min_cycle;Max_cycle;Signal;HPM_P1;HPM_P2
2022/08/24 00:00:11;;;;;;;15.00;9.05;;;;;;;;;;5031300;28;90981;-75
2022/08/24 00:02:37;;;;;;;13.00;8.63;;;;;;;;;;5028635;28;90549;-75
2022/08/24 00:05:05;;;;;;;15.90;9.40;;;;;;;;;;5031493;28;89955;-74
2022/08/24 00:07:31;;;;;;;16.83;9.18;;;;;;;;;;5029704;28;87933;-74
2022/08/24 00:09:58;;;;;;;13.02;8.98;;;;;;;;;;5034178;28;90251;-74
2022/08/24 00:12:25;;;;;;;16.23;9.98;;;;;;;;;;5034235;28;90014;-74
2022/08/24 00:14:52;;;;;;;17.88;9.35;;;;;;;;;;5030076;28;89167;-75
2022/08/24 00:17:19;;;;;;;12.35;9.05;;;;;;;;;;5033051;28;89731;-75
2022/08/24 00:19:45;;;;;;;15.82;10.00;;;;;;;;;;5033095;27;89857;-74
2022/08/24 00:22:12;;;;;;;14.23;9.18;;;;;;;;;;5031964;28;89914;-75
2022/08/24 00:24:39;;;;;;;16.00;9.00;;;;;;;;;;5030559;28;89633;-75
2022/08/24 00:27:05;;;;;;;13.02;9.48;;;;;;;;;;5031795;27;89304;-75
2022/08/24 00:29:32;;;;;;;13.98;8.77;;;;;;;;;;5033204;28;89744;-75
2022/08/24 00:31:58;;;;;;;16.40;9.07;;;;;;;;;;5033442;28;88817;-74
2022/08/24 00:34:26;;;;;;;12.23;8.25;;;;;;;;;;5033876;28;88977;-74
2022/08/24 00:36:52;;;;;;;21.08;8.82;;;;;;;;;;5029411;28;89666;-75
2022/08/24 00:39:19;;;;;;;15.52;8.88;;;;;;;;;;5032289;28;89769;-74
2022/08/24 00:41:47;;;;;;;11.30;8.00;;;;;;;;;;5033851;28;88116;-74
2022/08/24 00:44:15;;;;;;;11.20;8.05;;;;;;;;;;5034054;28;89166;-75
2022/08/24 00:46:47;;;;;;;9.70;7.60;;;;;;;;;;5033482;28;89154;-74
2022/08/24 00:49:19;;;;;;;10.18;7.30;;;;;;;;;;5030634;28;89943;-74
2022/08/24 00:51:49;;;;;;;11.50;7.82;;;;;;;;;;5029703;28;89832;-74
2022/08/24 00:54:16;;;;;;;14.77;7.80;;;;;;;;;;5032489;28;89033;-74
2022/08/24 00:56:50;;;;;;;19.58;8.23;;;;;;;;;;5033807;28;89858;-75
2022/08/24 00:59:20;;;;;;;19.48;8.05;;;;;;;;;;5031955;28;89775;-75
2022/08/24 01:01:47;;;;;;;15.75;7.55;;;;;;;;;;5032934;28;89249;-74
2022/08/24 01:04:17;;;;;;;9.55;6.95;;;;;;;;;;5032288;28;89840;-75
2022/08/24 01:06:44;;;;;;;9.70;6.03;;;;;;;;;;5033473;27;89975;-75
2022/08/24 01:09:10;;;;;;;9.95;6.07;;;;;;;;;;5029968;28;89365;-75
2022/08/24 01:11:37;;;;;;;13.05;6.78;;;;;;;;;;5032157;28;90421;-75
2022/08/24 01:14:04;;;;;;;13.60;7.80;;;;;;;;;;5032494;28;89041;-74
2022/08/24 01:19:21;;;;;;;14.13;7.43;;;;;;;;;;5032817;27;89569;-74
2022/08/24 01:21:53;;;;;;;13.68;7.13;;;;;;;;;;5032192;28;88327;-74
2022/08/24 01:24:20;;;;;;;10.80;7.32;;;;;;;;;;5015924;27;88767;-74
2022/08/24 01:26:48;;;;;;;14.27;7.78;;;;;;;;;;5016783;28;89896;-74
2022/08/24 01:29:19;;;;;;;12.13;7.50;;;;;;;;;;5025353;28;89145;-75
2022/08/24 01:31:48;;;;;;;9.23;7.35;;;;;;;;;;5012474;28;89854;-74
2022/08/24 01:34:15;;;;;;;10.80;7.05;;;;;;;;;;5032104;28;88533;-75
2022/08/24 01:36:46;;;;;;;10.35;7.25;;;;;;;;;;5027657;28;89433;-74
2022/08/24 01:39:19;;;;;;;16.90;6.95;;;;;;;;;;5025364;28;90586;-74
2022/08/24 01:41:46;;;;;;;10.05;7.53;;;;;;;;;;5032481;28;89271;-74
2022/08/24 01:44:12;;;;;;;9.38;7.28;;;;;;;;;;5031133;28;90086;-74
2022/08/24 01:46:47;;;;;;;9.55;8.05;;;;;;;;;;5032998;28;89996;-74
2022/08/24 01:49:14;;;;;;;10.88;7.88;;;;;;;;;;5035064;28;89229;-74
2022/08/24 01:51:41;;;;;;;16.58;8.07;;;;;;;;;;5028331;28;88866;-73
2022/08/24 01:54:08;;;;;;;11.73;7.75;;;;;;;;;;5032381;28;88827;-75
2022/08/24 01:56:35;;;;;;;9.63;7.47;;;;;;;;;;5033282;28;89850;-75
2022/08/24 01:59:03;;;;;;;10.02;8.20;;;;;;;;;;5029916;28;89997;-75
2022/08/24 02:01:31;;;;;;;14.30;7.95;;;;;;;;;;5028193;28;88338;-75
2022/08/24 02:03:59;;;;;;;10.13;7.47;;;;;;;;;;5027670;28;89778;-74
2022/08/24 02:06:26;;;;;;;12.57;7.50;;;;;;;;;;5027924;28;90445;-74
2022/08/24 02:08:52;;;;;;;12.88;8.43;;;;;;;;;;5030529;27;88066;-74
2022/08/24 02:11:18;;;;;;;12.30;8.40;;;;;;;;;;5035524;28;88858;-75
2022/08/24 02:13:46;;;;;;;13.55;8.15;;;;;;;;;;5032316;28;89582;-75
2022/08/24 02:16:13;;;;;;;12.80;8.93;;;;;;;;;;5030801;28;90373;-74
2022/08/24 02:18:40;;;;;;;14.25;9.73;;;;;;;;;;5023506;28;90204;-75
2022/08/24 02:21:08;;;;;;;12.13;8.70;;;;;;;;;;5032361;28;89092;-75
2022/08/24 02:23:35;;;;;;;15.43;9.70;;;;;;;;;;5030979;28;89353;-75
2022/08/24 02:26:02;;;;;;;13.68;9.25;;;;;;;;;;5031829;28;90144;-74
2022/08/24 02:28:29;;;;;;;16.30;10.38;;;;;;;;;;5028922;27;89218;-75
2022/08/24 02:30:55;;;;;;;12.10;9.15;;;;;;;;;;5030307;28;89799;-74
2022/08/24 02:33:22;;;;;;;18.17;8.77;;;;;;;;;;5032508;28;90347;-74
2022/08/24 02:35:49;;;;;;;21.23;8.75;;;;;;;;;;5029548;27;90265;-73
2022/08/24 02:38:15;;;;;;;12.07;8.48;;;;;;;;;;5023798;28;89656;-74
2022/08/24 02:40:42;;;;;;;14.68;8.30;;;;;;;;;;5031597;28;88995;-74
2022/08/24 02:43:08;;;;;;;14.48;7.97;;;;;;;;;;5031479;28;90491;-74
2022/08/24 02:45:44;;;;;;;10.55;7.75;;;;;;;;;;5032322;28;89388;-74
2022/08/24 02:48:16;;;;;;;11.00;7.20;;;;;;;;;;5029559;28;89073;-74
2022/08/24 02:50:44;;;;;;;15.10;8.30;;;;;;;;;;5031679;28;90053;-74
2022/08/24 02:53:12;;;;;;;10.90;7.15;;;;;;;;;;5026560;28;91334;-74
2022/08/24 02:55:40;;;;;;;12.00;7.35;;;;;;;;;;5026660;28;89210;-74
2022/08/24 02:58:06;;;;;;;11.25;7.25;;;;;;;;;;5011517;28;90096;-74
2022/08/24 03:00:35;;;;;;;10.98;7.05;;;;;;;;;;5018131;28;89040;-74
2022/08/24 03:03:01;;;;;;;11.75;8.13;;;;;;;;;;5030677;28;88608;-74
2022/08/24 03:05:28;;;;;;;8.95;7.20;;;;;;;;;;5029604;28;90045;-74
2022/08/24 03:07:55;;;;;;;14.45;7.93;;;;;;;;;;5028022;28;89071;-74
2022/08/24 03:10:22;;;;;;;11.10;6.68;;;;;;;;;;5031579;28;88519;-74
2022/08/24 03:12:49;;;;;;;9.40;6.68;;;;;;;;;;5030930;28;88965;-74
2022/08/24 03:15:16;;;;;;;10.32;6.95;;;;;;;;;;5031339;28;89207;-74
2022/08/24 03:17:42;;;;;;;13.70;6.20;;;;;;;;;;5031547;28;89846;-74
2022/08/24 03:20:13;;;;;;;10.13;5.55;;;;;;;;;;5027119;27;88901;-74
2022/08/24 03:22:40;;;;;;;10.68;6.38;;;;;;;;;;5026776;28;90168;-74
2022/08/24 03:25:07;;;;;;;9.57;6.50;;;;;;;;;;5028216;28;90033;-74
2022/08/24 03:27:34;;;;;;;10.20;5.60;;;;;;;;;;5025873;28;89355;-74
2022/08/24 03:30:01;;;;;;;10.43;5.90;;;;;;;;;;5030723;28;89953;-74
2022/08/24 03:32:27;;;;;;;13.13;5.68;;;;;;;;;;5030319;28;91987;-73
2022/08/24 03:34:54;;;;;;;9.82;6.10;;;;;;;;;;5028894;28;89479;-74
2022/08/24 03:37:20;;;;;;;7.80;5.93;;;;;;;;;;5027074;28;89238;-74
2022/08/24 03:39:48;;;;;;;7.28;5.43;;;;;;;;;;5032862;28;89534;-74
2022/08/24 03:42:15;;;;;;;10.10;5.80;;;;;;;;;;5030127;27;89699;-74
2022/08/24 03:44:41;;;;;;;7.95;6.05;;;;;;;;;;5030254;28;88995;-73
2022/08/24 03:47:09;;;;;;;7.88;5.30;;;;;;;;;;5033347;28;87988;-74
2022/08/24 03:49:36;;;;;;;8.20;5.20;;;;;;;;;;5033873;28;90043;-74
2022/08/24 03:52:03;;;;;;;10.88;5.40;;;;;;;;;;5029355;27;90535;-75
2022/08/24 03:54:30;;;;;;;12.52;5.10;;;;;;;;;;5034244;28;89092;-75
2022/08/24 03:56:57;;;;;;;8.07;5.32;;;;;;;;;;5031552;27;89929;-75
2022/08/24 03:59:24;;;;;;;13.23;5.10;;;;;;;;;;5037753;28;88533;-75
2022/08/24 04:01:50;;;;;;;7.47;5.00;;;;;;;;;;5034278;28;89026;-75
2022/08/24 04:04:17;;;;;;;8.85;5.03;;;;;;;;;;5034341;28;89969;-75
2022/08/24 04:06:45;;;;;;;9.55;4.80;;;;;;;;;;5029359;28;89711;-75
2022/08/24 04:09:12;;;;;;;5.75;4.82;;;;;;;;;;5023450;28;91458;-75
2022/08/24 04:11:38;;;;;;;9.38;5.88;;;;;;;;;;5031936;28;89888;-75
2022/08/24 04:14:07;;;;;;;9.73;5.30;;;;;;;;;;5033730;28;89135;-75
2022/08/24 04:16:45;;;;;;;6.68;4.75;;;;;;;;;;5029482;28;89877;-75
2022/08/24 04:19:22;;;;;;;9.18;5.20;;;;;;;;;;5033548;27;90397;-74
2022/08/24 04:21:48;;;;;;;15.07;5.25;;;;;;;;;;5034316;28;88906;-75
2022/08/24 04:24:15;;;;;;;7.95;5.25;;;;;;;;;;5034451;28;89357;-75
2022/08/24 04:26:41;;;;;;;9.40;5.70;;;;;;;;;;5022441;28;88977;-74
2022/08/24 04:29:12;;;;;;;11.00;5.00;;;;;;;;;;5033941;28;89802;-75
2022/08/24 04:31:39;;;;;;;9.80;4.90;;;;;;;;;;5029526;28;90724;-75
2022/08/24 04:34:06;;;;;;;17.00;4.95;;;;;;;;;;5031710;28;89391;-75
2022/08/24 19:09:13;;;;;;;7.78;2.10;;;;;;;;;;5131501;27;87576;-76
2022/08/24 19:11:39;;;;;;;3.90;2.20;;;;;;;;;;5110541;27;87617;-75
2022/08/24 19:14:05;;;;;;;6.03;2.28;;;;;;;;;;5108300;27;88173;-75
2022/08/24 19:16:32;;;;;;;4.30;2.20;;;;;;;;;;5109753;27;88382;-75
2022/08/24 19:18:59;;;;;;;5.38;2.40;;;;;;;;;;5102377;27;89640;-75
2022/08/24 19:21:26;;;;;;;3.20;2.22;;;;;;;;;;5088735;27;88135;-75
2022/08/24 19:23:53;;;;;;;6.57;2.10;;;;;;;;;;5090382;27;87805;-75
2022/08/24 19:26:19;;;;;;;4.28;2.17;;;;;;;;;;5110367;27;88854;-75
2022/08/24 19:28:46;;;;;;;3.85;2.30;;;;;;;;;;5110919;27;88309;-75
2022/08/24 19:31:12;;;;;;;8.27;2.45;;;;;;;;;;5108608;27;89211;-75
2022/08/24 19:33:42;;;;;;;5.45;2.60;;;;;;;;;;5109753;27;88461;-75
2022/08/24 19:36:11;;;;;;;5.00;2.50;;;;;;;;;;5107531;27;88463;-75
2022/08/24 19:38:38;;;;;;;3.63;2.60;;;;;;;;;;5089354;27;87677;-75
2022/08/24 19:41:04;;;;;;;5.38;2.90;;;;;;;;;;5105364;27;88205;-75
2022/08/24 19:46:01;;;;;;;6.53;2.53;;;;;;;;;;5109091;27;87489;-75
2022/08/24 19:46:25;;;;;;;4.07;2.75;;;;;;;;;;5108997;27;88971;-75
2022/08/24 19:48:51;;;;;;;8.93;2.78;;;;;;;;;;5109077;27;88711;-75
2022/08/24 19:51:18;;;;;;;10.05;3.00;;;;;;;;;;5111932;27;87514;-75
2022/08/24 19:53:45;;;;;;;7.43;2.60;;;;;;;;;;5108444;27;88382;-76
2022/08/24 19:56:11;;;;;;;9.80;2.70;;;;;;;;;;5109184;27;87452;-75
2022/08/24 19:58:42;;;;;;;5.47;3.05;;;;;;;;;;5104080;27;88523;-75
2022/08/24 20:01:11;;;;;;;3.65;2.63;;;;;;;;;;5109243;27;88497;-75
2022/08/24 20:03:38;;;;;;;10.45;3.00;;;;;;;;;;5098459;27;88004;-75
2022/08/24 20:06:04;;;;;;;7.03;3.00;;;;;;;;;;5106971;27;88760;-75
2022/08/24 20:08:31;;;;;;;7.28;2.90;;;;;;;;;;5107799;27;90188;-75
2022/08/24 20:10:59;;;;;;;4.75;2.95;;;;;;;;;;5107012;27;90171;-75
2022/08/24 20:13:25;;;;;;;5.03;3.30;;;;;;;;;;5108765;27;89246;-75
2022/08/24 20:15:53;;;;;;;7.45;3.70;;;;;;;;;;5106015;27;87622;-75
2022/08/24 20:18:23;;;;;;;6.40;3.80;;;;;;;;;;5109138;27;89163;-77
2022/08/24 20:20:49;;;;;;;7.45;4.18;;;;;;;;;;5095220;27;88430;-75
2022/08/24 20:23:16;;;;;;;5.60;4.15;;;;;;;;;;5089006;27;87428;-75
2022/08/24 20:25:42;;;;;;;6.95;4.60;;;;;;;;;;5094538;27;88748;-75
2022/08/24 20:28:11;;;;;;;8.20;5.00;;;;;;;;;;5093677;27;88438;-75
2022/08/24 20:30:54;;;;;;;8.38;5.00;;;;;;;;;;5095040;27;88576;-75
2022/08/24 20:33:22;;;;;;;7.78;6.00;;;;;;;;;;5094770;27;88727;-75
2022/08/24 20:35:49;;;;;;;9.02;5.90;;;;;;;;;;5097708;27;88195;-75
2022/08/24 20:38:17;;;;;;;14.35;6.50;;;;;;;;;;5094850;27;87675;-75
2022/08/24 20:40:43;;;;;;;11.38;6.18;;;;;;;;;;5093481;27;88229;-75
2022/08/24 20:43:10;;;;;;;9.05;6.18;;;;;;;;;;5095595;27;88640;-75
2022/08/24 20:45:38;;;;;;;9.25;6.40;;;;;;;;;;5095857;27;88905;-75
2022/08/24 20:48:06;;;;;;;10.13;6.90;;;;;;;;;;5093510;27;88182;-75
2022/08/24 20:50:32;;;;;;;13.73;6.43;;;;;;;;;;5089859;27;88344;-75
2022/08/24 20:52:58;;;;;;;9.93;7.07;;;;;;;;;;5094733;27;88238;-75
2022/08/24 20:55:25;;;;;;;10.85;7.35;;;;;;;;;;5093603;27;88212;-75
2022/08/24 20:57:53;;;;;;;10.13;6.85;;;;;;;;;;5097599;27;89023;-75
2022/08/24 21:00:21;;;;;;;11.85;7.00;;;;;;;;;;5095975;27;88402;-75
2022/08/24 21:02:48;;;;;;;15.23;7.55;;;;;;;;;;5094304;27;88786;-75
2022/08/24 21:05:15;;;;;;;10.40;7.05;;;;;;;;;;5091532;27;88125;-75
2022/08/24 21:07:48;;;;;;;12.27;7.68;;;;;;;;;;5094532;27;88756;-75
2022/08/24 21:10:20;;;;;;;14.68;7.68;;;;;;;;;;5094043;27;88726;-75
2022/08/24 21:12:50;;;;;;;11.10;7.30;;;;;;;;;;5090777;27;89431;-75
2022/08/24 21:15:16;;;;;;;11.02;7.43;;;;;;;;;;5095539;27;88470;-75
2022/08/24 21:17:43;;;;;;;10.57;7.22;;;;;;;;;;5090611;27;88549;-75
2022/08/24 21:20:11;;;;;;;9.32;7.30;;;;;;;;;;5092980;27;87945;-75
2022/08/24 21:22:37;;;;;;;9.88;7.20;;;;;;;;;;5095117;27;87218;-75
2022/08/24 21:25:04;;;;;;;8.98;7.00;;;;;;;;;;5094104;27;89038;-75
2022/08/24 21:27:33;;;;;;;10.48;6.88;;;;;;;;;;5094328;27;88283;-75
2022/08/24 21:30:00;;;;;;;11.40;7.47;;;;;;;;;;5075212;27;88986;-75
2022/08/24 21:35:12;;;;;;;14.27;7.68;;;;;;;;;;5092062;27;88009;-75
2022/08/24 21:37:40;;;;;;;10.63;7.63;;;;;;;;;;5094407;27;88441;-75
2022/08/24 21:40:08;;;;;;;9.02;6.78;;;;;;;;;;5095133;27;88686;-75
2022/08/24 21:42:35;;;;;;;12.93;7.72;;;;;;;;;;5093727;27;88546;-75
2022/08/24 21:45:02;;;;;;;10.63;7.70;;;;;;;;;;5091318;27;89311;-75
2022/08/24 21:47:28;;;;;;;9.73;7.10;;;;;;;;;;5073617;27;88187;-75
2022/08/24 21:49:54;;;;;;;9.38;7.20;;;;;;;;;;5093082;27;88595;-75
2022/08/24 21:52:21;;;;;;;13.60;7.22;;;;;;;;;;5087937;27;88929;-75
2022/08/24 21:54:47;;;;;;;14.27;7.18;;;;;;;;;;5092001;27;87367;-75
2022/08/24 21:57:14;;;;;;;10.45;7.28;;;;;;;;;;5072981;27;88842;-75
2022/08/24 21:59:41;;;;;;;13.50;7.00;;;;;;;;;;5094909;27;89590;-75
2022/08/24 22:02:07;;;;;;;11.38;6.82;;;;;;;;;;5095363;27;88466;-75
2022/08/24 22:04:38;;;;;;;12.18;6.63;;;;;;;;;;5091501;27;89123;-75
2022/08/24 22:07:04;;;;;;;11.75;6.70;;;;;;;;;;5092419;27;88757;-75
2022/08/24 22:09:31;;;;;;;8.80;6.45;;;;;;;;;;5090306;27;88333;-75
2022/08/24 22:11:58;;;;;;;7.90;6.38;;;;;;;;;;5090552;27;89167;-75
2022/08/24 22:14:25;;;;;;;11.30;6.65;;;;;;;;;;5093923;27;88094;-75
2022/08/24 22:16:52;;;;;;;14.30;6.60;;;;;;;;;;5093854;27;88302;-75
2022/08/24 22:19:18;;;;;;;14.35;6.68;;;;;;;;;;5094424;27;88937;-75
2022/08/24 22:21:45;;;;;;;9.05;5.93;;;;;;;;;;5093408;27;87997;-75
2022/08/24 22:24:13;;;;;;;7.75;6.55;;;;;;;;;;5092994;27;88700;-75
2022/08/24 22:26:40;;;;;;;12.45;6.63;;;;;;;;;;5091240;27;87964;-75
2022/08/24 22:29:07;;;;;;;10.95;6.68;;;;;;;;;;5086404;27;88689;-75
2022/08/24 22:31:35;;;;;;;9.48;6.50;;;;;;;;;;5093847;27;88866;-75
2022/08/24 22:34:04;;;;;;;8.15;5.80;;;;;;;;;;5093572;27;87564;-75
2022/08/24 22:36:31;;;;;;;8.43;5.75;;;;;;;;;;5088767;27;89052;-75
2022/08/24 22:38:57;;;;;;;9.18;5.85;;;;;;;;;;5093240;27;89650;-74
2022/08/24 22:41:24;;;;;;;9.68;6.45;;;;;;;;;;5092884;27;88134;-74
2022/08/24 22:46:37;;;;;;;9.77;6.38;;;;;;;;;;5096688;27;89217;-74
2022/08/24 22:49:05;;;;;;;9.18;5.68;;;;;;;;;;5092523;27;88674;-74
2022/08/24 22:51:31;;;;;;;10.68;6.28;;;;;;;;;;5084628;27;88816;-74
2022/08/24 22:53:58;;;;;;;19.38;6.35;;;;;;;;;;5089129;27;88511;-74
2022/08/24 22:56:27;;;;;;;13.82;6.32;;;;;;;;;;5093578;27;88555;-73
2022/08/24 22:58:54;;;;;;;9.95;5.47;;;;;;;;;;5073971;27;88856;-74
2022/08/24 23:01:22;;;;;;;15.45;6.07;;;;;;;;;;5089140;27;87934;-74
2022/08/24 23:03:49;;;;;;;10.63;6.18;;;;;;;;;;5088871;27;88655;-74
2022/08/24 23:06:16;;;;;;;18.65;6.35;;;;;;;;;;5092408;27;89379;-74
2022/08/24 23:08:42;;;;;;;9.77;5.85;;;;;;;;;;5094984;27;87634;-73
2022/08/24 23:11:09;;;;;;;11.82;5.75;;;;;;;;;;5093220;27;89305;-74
2022/08/24 23:13:36;;;;;;;9.48;5.95;;;;;;;;;;5093406;27;88100;-74
2022/08/24 23:16:07;;;;;;;10.73;5.72;;;;;;;;;;5072644;27;90014;-74
2022/08/24 23:21:18;;;;;;;9.05;5.70;;;;;;;;;;5092562;27;88341;-74
2022/08/24 23:23:44;;;;;;;10.25;5.47;;;;;;;;;;5092043;27;90101;-74
2022/08/24 23:26:11;;;;;;;11.02;6.13;;;;;;;;;;5087997;27;91227;-75
2022/08/24 23:28:43;;;;;;;9.40;5.60;;;;;;;;;;5091227;27;90515;-74
2022/08/24 23:31:12;;;;;;;9.68;6.05;;;;;;;;;;5088486;27;89170;-74
2022/08/24 23:33:39;;;;;;;10.80;6.43;;;;;;;;;;5083419;27;90223;-74
2022/08/24 23:36:06;;;;;;;9.93;6.30;;;;;;;;;;5086842;27;89820;-74
2022/08/24 23:38:33;;;;;;;9.68;6.20;;;;;;;;;;5089813;27;89003;-75
2022/08/24 23:41:03;;;;;;;11.35;6.55;;;;;;;;;;5088905;27;89612;-74
2022/08/24 23:43:29;;;;;;;11.38;6.45;;;;;;;;;;5089785;27;89588;-74
2022/08/24 23:45:55;;;;;;;11.15;6.22;;;;;;;;;;5085238;27;89808;-74
2022/08/24 23:48:22;;;;;;;10.10;6.30;;;;;;;;;;5090066;27;90005;-75
2022/08/24 23:50:48;;;;;;;12.80;6.32;;;;;;;;;;5089890;27;90631;-74
2022/08/24 23:53:14;;;;;;;13.55;5.78;;;;;;;;;;5087195;27;90825;-75
2022/08/24 23:55:41;;;;;;;12.27;6.50;;;;;;;;;;5074187;27;89794;-74
2022/08/24 23:58:07;;;;;;;7.72;5.78;;;;;;;;;;5094495;27;89108;-74
